createdAt,value
2019-05-05T00:00:40.657Z,4.20
2019-05-05T00:03:20.479Z,4.10
2019-05-05T00:05:49.919Z,4.10
2019-05-05T00:08:19.545Z,4.00
2019-05-05T00:11:11.062Z,4.10
2019-05-05T00:13:46.119Z,4.00
2019-05-05T00:16:35.048Z,4.00
2019-05-05T00:19:04.755Z,3.90
2019-05-05T00:21:34.409Z,3.90
2019-05-05T00:24:04.657Z,3.90
2019-05-05T00:26:34.911Z,3.80
2019-05-05T00:29:04.571Z,3.80
2019-05-05T00:31:34.940Z,3.80
2019-05-05T00:34:05.143Z,3.80
2019-05-05T00:36:35.213Z,3.80
2019-05-05T00:39:07.519Z,3.70
2019-05-05T00:41:36.726Z,3.60
2019-05-05T00:44:05.900Z,3.50
2019-05-05T00:47:05.663Z,3.50
2019-05-05T00:49:45.701Z,3.40
2019-05-05T00:52:06.595Z,3.50
2019-05-05T00:54:35.718Z,3.40
2019-05-05T00:57:05.340Z,3.40
2019-05-05T00:59:34.880Z,3.50
2019-05-05T01:02:31.606Z,3.40
2019-05-05T01:05:19.786Z,3.40
2019-05-05T01:07:49.234Z,3.30
2019-05-05T01:10:18.439Z,3.20
2019-05-05T01:12:47.579Z,3.20
2019-05-05T01:15:16.828Z,3.10
2019-05-05T01:17:45.971Z,3.10
2019-05-05T01:20:16.220Z,3.10
2019-05-05T01:22:45.384Z,3.10
2019-05-05T01:25:15.426Z,3.00
2019-05-05T01:27:45.338Z,3.00
2019-05-05T01:30:18.480Z,3.00
2019-05-05T01:32:50.646Z,2.90
2019-05-05T01:35:19.914Z,3.00
2019-05-05T01:38:09.892Z,3.00
2019-05-05T01:40:56.730Z,3.00
2019-05-05T01:43:25.956Z,3.00
2019-05-05T01:45:55.170Z,3.00
2019-05-05T01:48:24.800Z,3.10
2019-05-05T01:50:54.434Z,3.00
2019-05-05T01:53:24.475Z,3.00
2019-05-05T01:55:54.316Z,3.00
2019-05-05T01:58:24.452Z,3.00
2019-05-05T02:00:54.606Z,3.00
2019-05-05T02:03:24.451Z,3.00
2019-05-05T02:05:54.611Z,2.90
2019-05-05T02:08:24.511Z,2.90
2019-05-05T02:10:54.734Z,2.90
2019-05-05T02:13:25.145Z,2.90
2019-05-05T02:15:55.305Z,2.90
2019-05-05T02:18:25.377Z,2.90
2019-05-05T02:21:05.512Z,2.90
2019-05-05T02:23:36.866Z,2.90
2019-05-05T02:26:08.127Z,2.90
2019-05-05T02:28:45.217Z,2.90
2019-05-05T02:31:35.794Z,2.90
2019-05-05T02:34:05.486Z,3.00
2019-05-05T02:36:35.586Z,3.00
2019-05-05T02:39:08.587Z,3.00
2019-05-05T02:41:38.335Z,2.90
2019-05-05T02:44:07.995Z,2.90
2019-05-05T02:46:59.360Z,2.80
2019-05-05T02:49:29.946Z,2.80
2019-05-05T02:52:00.377Z,2.80
2019-05-05T02:54:33.783Z,2.90
2019-05-05T02:57:04.647Z,2.90
2019-05-05T02:59:40.899Z,2.90
2019-05-05T03:02:14.491Z,2.90
2019-05-05T03:04:45.673Z,2.90
2019-05-05T03:07:17.383Z,2.90
2019-05-05T03:09:47.948Z,2.90
2019-05-05T03:12:19.704Z,3.00
2019-05-05T03:14:53.692Z,3.10
2019-05-05T03:17:23.601Z,3.10
2019-05-05T03:19:53.619Z,3.10
2019-05-05T03:22:23.815Z,3.10
2019-05-05T03:24:54.200Z,3.00
2019-05-05T03:27:24.530Z,3.00
2019-05-05T03:29:53.705Z,3.00
2019-05-05T03:32:25.415Z,2.90
2019-05-05T03:34:54.169Z,2.90
2019-05-05T03:37:24.971Z,2.90
2019-05-05T03:40:01.231Z,2.90
2019-05-05T03:42:47.117Z,2.90
2019-05-05T03:45:23.355Z,2.90
2019-05-05T03:47:54.145Z,2.90
2019-05-05T03:50:23.848Z,2.90
2019-05-05T03:52:54.508Z,2.90
2019-05-05T03:55:24.196Z,2.90
2019-05-05T03:57:53.913Z,2.90
2019-05-05T04:00:51.278Z,2.90
2019-05-05T04:03:20.488Z,3.00
2019-05-05T04:05:56.367Z,3.00
2019-05-05T04:08:25.814Z,3.00
2019-05-05T04:10:55.380Z,3.10
2019-05-05T04:13:24.720Z,3.10
2019-05-05T04:16:23.647Z,3.20
2019-05-05T04:18:57.250Z,3.20
2019-05-05T04:21:33.171Z,3.20
2019-05-05T04:23:57.275Z,3.10
2019-05-05T04:26:26.436Z,3.20
2019-05-05T04:28:55.572Z,3.10
2019-05-05T04:31:24.726Z,3.10
2019-05-05T04:33:53.969Z,3.10
2019-05-05T04:36:23.613Z,3.10
2019-05-05T04:38:54.553Z,3.10
2019-05-05T04:41:24.543Z,3.10
2019-05-05T04:43:54.669Z,3.20
2019-05-05T04:46:24.626Z,3.10
2019-05-05T04:48:59.788Z,3.30
2019-05-05T04:51:46.261Z,3.30
2019-05-05T04:54:16.023Z,3.40
2019-05-05T04:56:45.176Z,3.50
2019-05-05T04:59:14.491Z,3.50
2019-05-05T05:01:44.508Z,3.60
2019-05-05T05:04:24.299Z,3.60
2019-05-05T05:06:55.277Z,3.60
2019-05-05T05:09:24.576Z,3.60
2019-05-05T05:11:54.723Z,3.70
2019-05-05T05:14:24.798Z,3.70
2019-05-05T05:16:55.732Z,3.80
2019-05-05T05:19:24.871Z,3.80
2019-05-05T05:22:01.715Z,3.90
2019-05-05T05:24:24.923Z,3.90
2019-05-05T05:26:55.543Z,4.00
2019-05-05T05:29:25.069Z,4.10
2019-05-05T05:31:54.300Z,4.10
2019-05-05T05:34:23.950Z,4.10
2019-05-05T05:36:53.708Z,4.30
2019-05-05T05:39:54.563Z,4.30
2019-05-05T05:42:24.190Z,4.30
2019-05-05T05:45:03.952Z,4.40
2019-05-05T05:47:53.674Z,4.40
2019-05-05T05:50:41.823Z,4.40
2019-05-05T05:53:10.997Z,4.50
2019-05-05T05:55:40.157Z,4.60
2019-05-05T05:58:09.380Z,4.70
2019-05-05T06:00:41.625Z,4.90
2019-05-05T06:03:09.478Z,5.10
2019-05-05T06:05:38.613Z,5.20
2019-05-05T06:08:07.798Z,5.20
2019-05-05T06:10:36.947Z,5.20
2019-05-05T06:13:06.161Z,5.30
2019-05-05T06:15:36.160Z,5.30
2019-05-05T06:18:05.423Z,5.30
2019-05-05T06:20:34.707Z,5.30
2019-05-05T06:23:04.168Z,5.40
2019-05-05T06:25:34.197Z,5.40
2019-05-05T06:28:04.260Z,5.50
2019-05-05T06:30:33.860Z,5.70
2019-05-05T06:33:04.861Z,5.70
2019-05-05T06:35:34.399Z,5.80
2019-05-05T06:38:04.702Z,5.80
2019-05-05T06:40:55.772Z,5.80
2019-05-05T06:43:35.782Z,5.80
2019-05-05T06:46:06.616Z,5.80
2019-05-05T06:48:35.834Z,5.90
2019-05-05T06:51:05.086Z,5.90
2019-05-05T06:53:34.353Z,6.00
2019-05-05T06:56:04.152Z,6.10
2019-05-05T06:58:34.749Z,6.20
2019-05-05T07:01:05.486Z,6.20
2019-05-05T07:03:34.638Z,6.20
2019-05-05T07:06:04.418Z,6.20
2019-05-05T07:08:34.711Z,6.30
2019-05-05T07:11:04.394Z,6.50
2019-05-05T07:13:34.083Z,6.60
2019-05-05T07:16:04.848Z,6.80
2019-05-05T07:18:34.375Z,7.00
2019-05-05T07:21:03.864Z,7.30
2019-05-05T07:23:34.075Z,7.50
2019-05-05T07:26:04.263Z,7.70
2019-05-05T07:28:34.320Z,7.90
2019-05-05T07:31:04.401Z,8.00
2019-05-05T07:33:34.756Z,8.10
2019-05-05T07:36:34.040Z,8.20
2019-05-05T07:39:05.785Z,8.30
2019-05-05T07:41:35.158Z,8.50
2019-05-05T07:44:04.934Z,8.60
2019-05-05T07:46:34.711Z,8.70
2019-05-05T07:49:04.502Z,8.70
2019-05-05T07:51:33.799Z,8.70
2019-05-05T07:54:03.796Z,8.70
2019-05-05T07:56:34.377Z,8.70
2019-05-05T07:59:04.558Z,8.90
2019-05-05T08:01:33.960Z,9.10
2019-05-05T08:04:04.524Z,9.00
2019-05-05T08:06:34.160Z,9.00
2019-05-05T08:09:04.989Z,9.10
2019-05-05T08:11:34.440Z,9.00
2019-05-05T08:14:04.171Z,9.20
2019-05-05T08:16:53.578Z,9.40
2019-05-05T08:19:36.201Z,9.40
2019-05-05T08:22:05.347Z,9.30
2019-05-05T08:25:05.798Z,9.30
2019-05-05T08:28:07.020Z,9.40
2019-05-05T08:30:45.694Z,9.40
2019-05-05T08:33:14.944Z,9.30
2019-05-05T08:35:44.894Z,9.50
2019-05-05T08:38:14.520Z,9.80
2019-05-05T08:40:43.955Z,10.00
2019-05-05T08:43:13.910Z,10.10
2019-05-05T08:45:44.354Z,10.00
2019-05-05T08:48:14.321Z,9.70
2019-05-05T08:50:44.065Z,9.40
2019-05-05T08:53:13.945Z,9.50
2019-05-05T08:55:44.242Z,9.70
2019-05-05T08:58:14.868Z,9.70
2019-05-05T09:00:44.623Z,9.90
2019-05-05T09:03:14.075Z,9.90
2019-05-05T09:05:43.881Z,9.90
2019-05-05T09:10:34.302Z,10.00
2019-05-05T09:13:04.045Z,10.30
2019-05-05T09:15:33.814Z,10.50
2019-05-05T09:18:04.995Z,10.40
2019-05-05T09:20:34.873Z,10.40
2019-05-05T09:23:04.381Z,10.20
2019-05-05T09:25:46.252Z,10.60
2019-05-05T09:28:28.951Z,10.50
2019-05-05T09:30:58.216Z,10.80
2019-05-05T09:33:27.436Z,10.90
2019-05-05T09:35:58.556Z,10.70
2019-05-05T09:38:30.142Z,10.50
2019-05-05T09:40:58.981Z,10.30
2019-05-05T09:43:28.139Z,10.50
2019-05-05T09:45:57.404Z,10.90
2019-05-05T09:48:26.643Z,11.20
2019-05-05T09:50:55.803Z,11.10
2019-05-05T09:53:27.342Z,10.90
2019-05-05T09:55:55.963Z,10.70
2019-05-05T09:58:25.135Z,10.60
2019-05-05T10:00:54.841Z,10.60
2019-05-05T10:03:24.388Z,10.40
2019-05-05T10:05:54.081Z,10.40
2019-05-05T10:08:23.725Z,10.60
2019-05-05T10:10:54.721Z,10.80
2019-05-05T10:13:24.162Z,10.90
2019-05-05T10:15:54.956Z,10.80
2019-05-05T10:18:25.525Z,10.90
2019-05-05T10:20:54.832Z,10.60
2019-05-05T10:23:25.655Z,10.50
2019-05-05T10:25:58.828Z,10.10
2019-05-05T10:28:28.146Z,9.70
2019-05-05T10:30:57.452Z,8.90
2019-05-05T10:33:26.608Z,8.30
2019-05-05T10:35:55.844Z,8.10
2019-05-05T10:38:25.110Z,8.10
2019-05-05T10:40:54.340Z,8.40
2019-05-05T10:43:23.879Z,8.60
2019-05-05T10:45:54.864Z,8.90
2019-05-05T10:48:24.065Z,9.40
2019-05-05T10:50:53.750Z,9.60
2019-05-05T10:53:23.055Z,9.70
2019-05-05T10:55:53.930Z,9.90
2019-05-05T10:58:24.395Z,10.00
2019-05-05T11:01:03.952Z,10.20
2019-05-05T11:03:34.333Z,10.30
2019-05-05T11:06:04.544Z,10.40
2019-05-05T11:08:35.123Z,10.50
2019-05-05T11:11:04.629Z,10.60
2019-05-05T11:13:34.437Z,10.70
2019-05-05T11:16:04.158Z,11.00
2019-05-05T11:18:34.473Z,11.20
2019-05-05T11:21:04.861Z,11.00
2019-05-05T11:23:34.724Z,10.50
2019-05-05T11:26:04.426Z,10.50
2019-05-05T11:28:33.971Z,11.00
2019-05-05T11:31:04.430Z,11.40
2019-05-05T11:33:58.629Z,11.90
2019-05-05T11:36:34.444Z,12.20
2019-05-05T11:39:04.527Z,12.10
2019-05-05T11:41:33.696Z,11.50
2019-05-05T11:44:04.112Z,11.00
2019-05-05T11:46:33.995Z,10.50
2019-05-05T11:49:04.953Z,10.40
2019-05-05T11:51:34.330Z,10.40
2019-05-05T11:54:04.638Z,10.70
2019-05-05T11:56:34.419Z,10.80
2019-05-05T11:59:04.032Z,10.80
2019-05-05T12:01:33.538Z,10.80
2019-05-05T12:04:04.357Z,10.80
2019-05-05T12:06:34.052Z,10.70
2019-05-05T12:09:07.690Z,11.40
2019-05-05T12:11:36.870Z,12.10
2019-05-05T12:14:08.149Z,12.00
2019-05-05T12:16:37.386Z,11.80
2019-05-05T12:19:10.778Z,11.30
2019-05-05T12:21:40.069Z,10.70
2019-05-05T12:24:15.713Z,9.50
2019-05-05T12:26:55.742Z,8.90
2019-05-05T12:29:28.014Z,8.60
2019-05-05T12:31:57.179Z,8.50
2019-05-05T12:34:26.352Z,8.40
2019-05-05T12:36:55.598Z,8.20
2019-05-05T12:39:24.756Z,8.10
2019-05-05T12:41:54.392Z,8.20
2019-05-05T12:44:28.880Z,8.30
2019-05-05T12:47:17.139Z,8.40
2019-05-05T12:49:47.855Z,8.50
2019-05-05T12:52:17.130Z,8.60
2019-05-05T12:54:46.281Z,8.80
2019-05-05T12:57:15.629Z,9.00
2019-05-05T12:59:44.766Z,9.30
2019-05-05T13:02:14.371Z,9.70
2019-05-05T13:04:43.958Z,10.10
2019-05-05T13:07:13.656Z,10.00
2019-05-05T13:09:44.069Z,9.90
2019-05-05T13:12:15.017Z,10.10
2019-05-05T13:14:44.477Z,10.50
2019-05-05T13:17:14.174Z,10.60
2019-05-05T13:19:55.954Z,10.70
2019-05-05T13:22:46.911Z,10.80
2019-05-05T13:25:30.445Z,10.90
2019-05-05T13:27:59.610Z,11.00
2019-05-05T13:30:28.921Z,10.90
2019-05-05T13:32:58.159Z,10.90
2019-05-05T13:35:27.391Z,11.30
2019-05-05T13:37:56.640Z,11.70
2019-05-05T13:40:25.906Z,11.80
2019-05-05T13:42:55.065Z,12.10
2019-05-05T13:45:50.307Z,12.20
2019-05-05T13:48:19.774Z,11.90
2019-05-05T13:50:53.762Z,12.00
2019-05-05T13:53:23.683Z,12.50
2019-05-05T13:56:02.480Z,13.10
2019-05-05T13:58:24.931Z,13.00
2019-05-05T14:00:54.671Z,12.50
2019-05-05T14:03:24.044Z,11.60
2019-05-05T14:05:54.111Z,10.90
2019-05-05T14:08:23.827Z,10.60
2019-05-05T14:10:54.042Z,10.50
2019-05-05T14:13:24.695Z,10.50
2019-05-05T14:15:54.554Z,10.50
2019-05-05T14:18:23.976Z,10.60
2019-05-05T14:20:53.376Z,10.80
2019-05-05T14:23:24.014Z,10.90
2019-05-05T14:25:54.433Z,12.00
2019-05-05T14:28:23.924Z,13.50
2019-05-05T14:31:01.609Z,14.40
2019-05-05T14:33:48.754Z,14.80
2019-05-05T14:36:37.532Z,15.10
2019-05-05T14:39:09.522Z,14.90
2019-05-05T14:41:38.688Z,14.30
2019-05-05T14:44:07.884Z,15.10
2019-05-05T14:46:37.418Z,15.60
2019-05-05T14:49:06.579Z,15.80
2019-05-05T14:51:35.839Z,16.20
2019-05-05T14:54:05.415Z,16.30
2019-05-05T14:56:36.496Z,15.20
2019-05-05T14:59:05.598Z,15.10
2019-05-05T15:01:34.828Z,15.70
2019-05-05T15:04:04.394Z,15.90
2019-05-05T15:06:55.546Z,16.10
2019-05-05T15:09:44.054Z,16.30
2019-05-05T15:12:34.062Z,15.90
2019-05-05T15:15:04.202Z,15.30
2019-05-05T15:17:34.050Z,14.40
2019-05-05T15:20:03.403Z,14.00
2019-05-05T15:22:34.357Z,14.30
2019-05-05T15:25:04.216Z,14.30
2019-05-05T15:27:34.865Z,13.80
2019-05-05T15:30:04.568Z,13.40
2019-05-05T15:32:34.434Z,12.70
2019-05-05T15:35:04.540Z,12.50
2019-05-05T15:37:33.765Z,12.80
2019-05-05T15:40:03.995Z,13.10
2019-05-05T15:42:33.545Z,14.10
2019-05-05T15:45:03.979Z,14.90
2019-05-05T15:47:34.293Z,16.00
2019-05-05T15:50:04.480Z,16.90
2019-05-05T15:52:35.148Z,16.10
2019-05-05T15:55:05.151Z,15.70
2019-05-05T15:57:34.351Z,15.30
2019-05-05T16:00:03.553Z,15.40
2019-05-05T16:02:32.757Z,16.20
2019-05-05T16:05:02.007Z,16.70
2019-05-05T16:07:33.286Z,16.40
2019-05-05T16:10:03.986Z,16.90
2019-05-05T16:12:36.855Z,17.30
2019-05-05T16:15:35.648Z,16.40
2019-05-05T16:18:13.599Z,15.10
2019-05-05T16:20:47.187Z,13.90
2019-05-05T16:23:25.532Z,13.30
2019-05-05T16:25:54.757Z,13.20
2019-05-05T16:28:25.127Z,12.90
2019-05-05T16:30:57.490Z,12.60
2019-05-05T16:33:26.657Z,12.40
2019-05-05T16:35:55.948Z,12.20
2019-05-05T16:38:25.201Z,12.10
2019-05-05T16:40:54.466Z,12.00
2019-05-05T16:43:24.708Z,12.10
2019-05-05T16:45:54.188Z,12.00
2019-05-05T16:48:25.206Z,12.00
2019-05-05T16:50:54.254Z,12.20
2019-05-05T16:53:36.455Z,12.30
2019-05-05T16:56:07.956Z,11.80
2019-05-05T16:58:37.131Z,11.30
2019-05-05T17:01:08.939Z,11.00
2019-05-05T17:03:38.109Z,11.00
2019-05-05T17:06:07.403Z,11.00
2019-05-05T17:08:36.607Z,11.00
2019-05-05T17:11:05.812Z,11.00
2019-05-05T17:13:40.321Z,11.10
2019-05-05T17:16:27.431Z,11.30
2019-05-05T17:19:04.387Z,11.30
2019-05-05T17:21:53.610Z,11.90
2019-05-05T17:24:24.052Z,13.00
2019-05-05T17:26:54.890Z,13.80
2019-05-05T17:29:24.445Z,13.80
2019-05-05T17:31:54.091Z,13.70
2019-05-05T17:34:24.669Z,13.50
2019-05-05T17:36:54.247Z,13.10
2019-05-05T17:39:25.646Z,12.90
2019-05-05T17:42:05.840Z,12.60
2019-05-05T17:44:41.165Z,12.60
2019-05-05T17:47:18.132Z,12.40
2019-05-05T17:50:04.361Z,11.90
2019-05-05T17:52:38.148Z,11.60
2019-05-05T17:55:27.541Z,11.40
2019-05-05T17:58:01.978Z,11.20
2019-05-05T18:00:29.502Z,11.00
2019-05-05T18:02:58.685Z,10.80
2019-05-05T18:05:45.441Z,10.80
2019-05-05T18:08:33.793Z,10.80
2019-05-05T18:11:07.869Z,10.60
2019-05-05T18:13:43.558Z,10.50
2019-05-05T18:16:14.045Z,10.50
2019-05-05T18:18:44.399Z,10.40
2019-05-05T18:21:14.321Z,10.30
2019-05-05T18:23:44.046Z,10.30
2019-05-05T18:26:13.745Z,10.20
2019-05-05T18:28:44.794Z,10.10
2019-05-05T18:31:14.298Z,10.10
2019-05-05T18:33:43.531Z,10.00
2019-05-05T18:36:14.194Z,9.80
2019-05-05T18:38:44.419Z,9.70
2019-05-05T18:41:23.745Z,9.60
2019-05-05T18:44:13.290Z,9.60
2019-05-05T18:46:43.598Z,9.50
2019-05-05T18:49:13.891Z,9.60
2019-05-05T18:51:43.914Z,9.60
2019-05-05T18:54:13.193Z,9.60
2019-05-05T18:56:44.049Z,9.60
2019-05-05T18:59:13.323Z,9.50
2019-05-05T19:01:55.087Z,9.50
2019-05-05T19:04:29.881Z,9.50
2019-05-05T19:07:03.439Z,9.50
2019-05-05T19:09:33.953Z,9.50
2019-05-05T19:12:04.091Z,9.50
2019-05-05T19:14:35.015Z,9.40
2019-05-05T19:17:04.859Z,9.40
2019-05-05T19:19:34.555Z,9.30
2019-05-05T19:22:08.454Z,9.20
2019-05-05T19:24:37.733Z,9.20
2019-05-05T19:27:07.159Z,9.00
2019-05-05T19:29:36.394Z,8.90
2019-05-05T19:32:05.882Z,8.80
2019-05-05T19:34:35.478Z,8.80
2019-05-05T19:37:05.080Z,8.80
2019-05-05T19:39:34.507Z,8.70
2019-05-05T19:42:04.810Z,8.50
2019-05-05T19:44:34.358Z,8.50
2019-05-05T19:47:20.872Z,8.50
2019-05-05T19:49:59.039Z,8.40
2019-05-05T19:52:28.308Z,8.40
2019-05-05T19:54:57.455Z,8.30
2019-05-05T19:57:26.634Z,8.30
2019-05-05T19:59:55.935Z,8.20
2019-05-05T20:02:25.168Z,8.20
2019-05-05T20:04:54.409Z,8.10
2019-05-05T20:07:24.816Z,8.10
2019-05-05T20:09:54.509Z,8.10
2019-05-05T20:12:23.774Z,8.00
2019-05-05T20:14:54.414Z,7.90
2019-05-05T20:17:35.508Z,7.90
2019-05-05T20:20:06.483Z,7.90
2019-05-05T20:22:35.711Z,7.90
2019-05-05T20:25:05.686Z,7.80
2019-05-05T20:27:34.959Z,7.70
2019-05-05T20:30:06.561Z,7.70
2019-05-05T20:32:56.362Z,7.70
2019-05-05T20:35:47.731Z,7.60
2019-05-05T20:38:23.738Z,7.70
2019-05-05T20:41:10.460Z,7.70
2019-05-05T20:43:40.050Z,7.60
2019-05-05T20:46:09.662Z,7.60
2019-05-05T20:48:41.213Z,7.60
2019-05-05T20:51:09.818Z,7.50
2019-05-05T20:53:39.050Z,7.50
2019-05-05T20:56:08.186Z,7.50
2019-05-05T20:58:37.382Z,7.50
2019-05-05T21:01:06.606Z,7.40
2019-05-05T21:03:35.893Z,7.40
2019-05-05T21:06:05.566Z,7.30
2019-05-05T21:08:34.991Z,7.20
2019-05-05T21:11:04.578Z,7.10
2019-05-05T21:13:34.339Z,7.00
2019-05-05T21:16:03.812Z,6.90
2019-05-05T21:18:34.716Z,6.80
2019-05-05T21:21:05.950Z,6.70
2019-05-05T21:23:43.982Z,6.60
2019-05-05T21:26:19.548Z,6.60
2019-05-05T21:28:48.701Z,6.50
2019-05-05T21:31:17.913Z,6.60
2019-05-05T21:33:47.390Z,6.60
2019-05-05T21:36:16.582Z,6.50
2019-05-05T21:38:45.791Z,6.40
2019-05-05T21:41:15.005Z,6.30
2019-05-05T21:43:44.876Z,6.30
2019-05-05T21:46:14.457Z,6.30
2019-05-05T21:48:44.853Z,6.20
2019-05-05T21:51:25.999Z,6.10
2019-05-05T21:54:13.942Z,6.00
2019-05-05T21:57:14.335Z,5.90
2019-05-05T21:59:54.894Z,5.80
2019-05-05T22:02:15.354Z,5.80
2019-05-05T22:04:44.668Z,5.70
2019-05-05T22:07:14.517Z,5.60
2019-05-05T22:09:43.920Z,5.60
2019-05-05T22:12:13.544Z,5.60
2019-05-05T22:14:43.928Z,5.50
2019-05-05T22:17:14.659Z,5.50
2019-05-05T22:19:54.169Z,5.40
2019-05-05T22:22:25.298Z,5.40
2019-05-05T22:24:54.602Z,5.30
2019-05-05T22:27:23.896Z,5.30
2019-05-05T22:29:55.325Z,5.20
2019-05-05T22:32:24.961Z,5.20
2019-05-05T22:34:54.498Z,5.10
2019-05-05T22:37:23.735Z,5.10
2019-05-05T22:39:54.209Z,5.00
2019-05-05T22:42:24.649Z,5.00
2019-05-05T22:44:54.113Z,5.00
2019-05-05T22:47:23.734Z,4.90
2019-05-05T22:49:53.907Z,4.90
2019-05-05T22:52:25.448Z,4.80
2019-05-05T22:54:54.480Z,4.70
2019-05-05T22:57:24.768Z,4.70
2019-05-05T22:59:54.257Z,4.70
2019-05-05T23:02:25.593Z,4.60
2019-05-05T23:05:00.530Z,4.60
2019-05-05T23:07:31.533Z,4.60
2019-05-05T23:10:00.713Z,4.50
2019-05-05T23:12:29.886Z,4.50
2019-05-05T23:14:59.137Z,4.40
2019-05-05T23:17:43.824Z,4.40
2019-05-05T23:20:27.914Z,4.40
2019-05-05T23:23:07.670Z,4.30
2019-05-05T23:25:40.340Z,4.30
2019-05-05T23:28:09.478Z,4.30
2019-05-05T23:30:41.845Z,4.20
2019-05-05T23:33:09.612Z,4.20
2019-05-05T23:35:38.828Z,4.20
2019-05-05T23:38:08.092Z,4.10
2019-05-05T23:40:37.301Z,4.20
2019-05-05T23:43:06.513Z,4.20
2019-05-05T23:45:35.958Z,4.10
2019-05-05T23:48:05.194Z,4.10
2019-05-05T23:50:34.521Z,4.00
2019-05-05T23:53:03.695Z,3.90
2019-05-05T23:55:34.429Z,3.90
2019-05-05T23:58:03.876Z,3.80
